Terminal Aerodrome Forecast
Issued by NWS

Home | Current Version | Previous Version | Text Only | Print | Product List | Glossary On
Versions: 1 2 3 4 5 6 7 8 9 10 11 12 13 14 15 16 17 18 19 20 21 22 23 24
000
FTUS43 KDVN 241900 AAA
TAFBRL
TAF AMD
KBRL 241919Z 2419/2518 19012KT P6SM BKN010
      TEMPO 2419/2421 SCT010
     FM242100 20010KT 6SM BR SCT010 BKN035
     FM250000 20005KT 4SM BR OVC005
     FM250400 30004KT 1SM BR OVC004
     FM251400 33006KT P6SM SCT200=

USA.gov is the U.S. government's official web portal to all federal, state and local government web resources and services.